Time;durP1;ratioP1;P1;durP2;ratioP2;P2;SDS_P1;SDS_P2;PMS_P1;PMS_P2;Temp;Humidity;BMP_temperature;BMP_pressure;BME280_temperature;BME280_humidity;BME280_pressure;Samples;Min_cycle;Max_cycle;Signal;HPM_P1;HPM_P2
2023/11/26 00:01:42;;;;;;;0.30;0.30;;;2.70;99.90;;;;;;5124417;27;20179;-79
2023/11/26 00:04:08;;;;;;;0.30;0.20;;;2.60;99.90;;;;;;5107931;28;20585;-75
2023/11/26 00:06:34;;;;;;;0.30;0.20;;;2.60;99.90;;;;;;5123661;27;20681;-80
2023/11/26 00:09:00;;;;;;;0.30;0.30;;;2.50;99.90;;;;;;5107821;28;20203;-80
2023/11/26 00:11:26;;;;;;;0.30;0.30;;;2.50;99.90;;;;;;5108225;28;20648;-78
2023/11/26 00:13:52;;;;;;;0.30;0.30;;;2.50;99.90;;;;;;5107079;28;20588;-75
2023/11/26 00:16:18;;;;;;;0.30;0.30;;;2.50;99.90;;;;;;5107285;28;20295;-79
2023/11/26 00:18:43;;;;;;;0.30;0.20;;;2.50;99.90;;;;;;5107517;28;20673;-80
2023/11/26 00:21:09;;;;;;;0.30;0.30;;;2.40;99.90;;;;;;5108235;28;20233;-75
2023/11/26 00:23:34;;;;;;;0.30;0.20;;;2.40;99.90;;;;;;5107583;28;20684;-75
2023/11/26 00:26:00;;;;;;;0.30;0.30;;;2.40;99.90;;;;;;5108071;28;20432;-80
2023/11/26 00:28:26;;;;;;;0.30;0.30;;;2.30;99.90;;;;;;5107218;28;20553;-80
2023/11/26 00:30:52;;;;;;;0.30;0.30;;;2.40;99.90;;;;;;5108266;28;20206;-75
2023/11/26 00:33:19;;;;;;;0.30;0.20;;;2.30;99.90;;;;;;5122878;27;20203;-75
2023/11/26 00:35:46;;;;;;;0.30;0.30;;;2.30;99.90;;;;;;5107748;28;21196;-80
2023/11/26 00:38:11;;;;;;;0.30;0.30;;;2.30;99.90;;;;;;5107218;28;20196;-75
2023/11/26 00:40:37;;;;;;;0.30;0.30;;;2.30;99.90;;;;;;5123268;27;20187;-74
2023/11/26 00:43:03;;;;;;;0.30;0.30;;;2.20;99.90;;;;;;5107196;28;20573;-80
2023/11/26 00:45:29;;;;;;;0.30;0.30;;;2.20;99.90;;;;;;5108007;28;20168;-75
2023/11/26 00:47:54;;;;;;;0.30;0.30;;;2.20;99.90;;;;;;5107389;28;20635;-81
2023/11/26 00:50:20;;;;;;;0.30;0.20;;;2.20;99.90;;;;;;5123010;27;20209;-75
2023/11/26 00:52:46;;;;;;;0.30;0.30;;;2.20;99.90;;;;;;5107421;28;20180;-75
2023/11/26 00:55:11;;;;;;;0.30;0.30;;;2.20;99.90;;;;;;5107538;28;20204;-80
2023/11/26 00:57:37;;;;;;;0.30;0.30;;;2.10;99.90;;;;;;5106679;28;20185;-80
2023/11/26 01:00:07;;;;;;;0.30;0.30;;;2.10;99.90;;;;;;5107550;28;20180;-79
2023/11/26 01:02:34;;;;;;;0.30;0.30;;;2.00;99.90;;;;;;5106455;28;20179;-75
2023/11/26 01:04:59;;;;;;;0.30;0.30;;;1.90;99.90;;;;;;5106309;28;20663;-80
2023/11/26 01:07:26;;;;;;;0.30;0.30;;;1.90;99.90;;;;;;5106449;28;20318;-80
2023/11/26 01:09:51;;;;;;;0.30;0.30;;;1.90;99.90;;;;;;5122789;27;20188;-80
2023/11/26 01:12:17;;;;;;;0.30;0.20;;;1.80;99.90;;;;;;5106551;28;20644;-75
2023/11/26 01:14:43;;;;;;;0.30;0.30;;;1.80;99.90;;;;;;5122453;27;20309;-75
2023/11/26 01:17:08;;;;;;;0.30;0.30;;;1.80;99.90;;;;;;5121483;27;20241;-78
2023/11/26 01:19:34;;;;;;;0.30;0.30;;;1.70;99.90;;;;;;5106943;28;20235;-80
2023/11/26 01:22:00;;;;;;;0.30;0.30;;;1.80;99.90;;;;;;5122060;27;20410;-75
2023/11/26 01:24:25;;;;;;;0.30;0.30;;;1.70;99.90;;;;;;5106577;28;20188;-75
2023/11/26 01:26:51;;;;;;;0.30;0.30;;;1.70;99.90;;;;;;5122528;27;20621;-79
2023/11/26 01:29:16;;;;;;;0.30;0.30;;;1.70;99.90;;;;;;5106298;28;20199;-81
2023/11/26 01:31:42;;;;;;;0.30;0.30;;;1.70;99.90;;;;;;5106374;28;20176;-79
2023/11/26 01:34:08;;;;;;;0.30;0.20;;;1.80;99.90;;;;;;5106486;28;20230;-79
2023/11/26 01:36:34;;;;;;;0.30;0.20;;;1.70;99.90;;;;;;5106713;28;20207;-75
2023/11/26 01:38:59;;;;;;;0.30;0.30;;;1.80;99.90;;;;;;5105789;28;20477;-75
2023/11/26 01:41:25;;;;;;;0.30;0.30;;;1.80;99.90;;;;;;5106233;28;20943;-79
2023/11/26 01:43:51;;;;;;;0.30;0.30;;;1.70;99.90;;;;;;5106232;28;20188;-80
2023/11/26 01:46:17;;;;;;;0.30;0.30;;;1.70;99.90;;;;;;5106797;28;20722;-80
2023/11/26 01:48:43;;;;;;;0.30;0.30;;;1.70;99.90;;;;;;5104646;28;20499;-81
2023/11/26 01:51:10;;;;;;;0.30;0.30;;;1.70;99.90;;;;;;5106263;28;20174;-78
2023/11/26 01:53:40;;;;;;;0.30;0.22;;;1.70;99.90;;;;;;5121680;27;20616;-75
2023/11/26 01:56:07;;;;;;;0.30;0.20;;;1.70;99.90;;;;;;5106693;28;20199;-75
2023/11/26 01:58:34;;;;;;;0.30;0.30;;;1.70;99.90;;;;;;5121384;27;20240;-80
2023/11/26 02:01:00;;;;;;;0.30;0.30;;;1.70;99.90;;;;;;5121891;27;20180;-75
2023/11/26 02:03:26;;;;;;;0.30;0.30;;;1.70;99.90;;;;;;5105942;28;20221;-75
2023/11/26 02:05:52;;;;;;;0.30;0.20;;;1.70;99.90;;;;;;5121871;27;20405;-80
2023/11/26 02:08:20;;;;;;;0.30;0.30;;;1.70;99.90;;;;;;5105756;28;20195;-75
2023/11/26 02:10:46;;;;;;;0.30;0.30;;;1.70;99.90;;;;;;5121967;27;20226;-80
2023/11/26 02:13:11;;;;;;;0.30;0.30;;;1.70;99.90;;;;;;5105591;28;20249;-80
2023/11/26 02:15:38;;;;;;;0.30;0.30;;;1.70;99.90;;;;;;5121639;27;20726;-80
2023/11/26 02:18:04;;;;;;;0.30;0.30;;;1.60;99.90;;;;;;5120496;28;20262;-80
2023/11/26 02:20:30;;;;;;;0.30;0.30;;;1.60;99.90;;;;;;5121586;28;20364;-75
2023/11/26 02:22:56;;;;;;;0.30;0.30;;;1.60;99.90;;;;;;5121390;28;20204;-80
2023/11/26 02:25:23;;;;;;;0.30;0.30;;;1.50;99.90;;;;;;5122174;28;20176;-80
2023/11/26 02:27:50;;;;;;;0.30;0.30;;;1.50;99.90;;;;;;5121039;28;20187;-75
2023/11/26 02:30:20;;;;;;;0.30;0.30;;;1.50;99.90;;;;;;5121518;28;20210;-75
2023/11/26 02:32:47;;;;;;;0.30;0.30;;;1.40;99.90;;;;;;5105204;28;20172;-81
2023/11/26 02:35:12;;;;;;;0.30;0.30;;;1.40;99.90;;;;;;5105834;28;20380;-79
2023/11/26 02:37:38;;;;;;;0.30;0.30;;;1.40;99.90;;;;;;5105187;28;20172;-75
2023/11/26 02:40:05;;;;;;;0.30;0.30;;;1.40;99.90;;;;;;5121825;28;20419;-80
2023/11/26 02:42:32;;;;;;;0.30;0.30;;;1.30;99.90;;;;;;5121131;28;20759;-80
2023/11/26 02:44:59;;;;;;;0.30;0.20;;;1.30;99.90;;;;;;5121401;28;20224;-81
2023/11/26 02:47:26;;;;;;;0.30;0.20;;;1.30;99.90;;;;;;5105601;28;20713;-75
2023/11/26 02:49:52;;;;;;;0.30;0.30;;;1.30;99.90;;;;;;5105745;28;20325;-75
2023/11/26 02:52:19;;;;;;;0.30;0.20;;;1.20;99.90;;;;;;5105424;28;20207;-80
2023/11/26 02:54:45;;;;;;;0.30;0.30;;;1.30;99.90;;;;;;5121262;28;20212;-80
2023/11/26 02:57:10;;;;;;;0.30;0.30;;;1.20;99.90;;;;;;5121039;28;20475;-80
2023/11/26 02:59:36;;;;;;;0.30;0.20;;;1.20;99.90;;;;;;5121128;28;20678;-75
2023/11/26 03:02:02;;;;;;;0.30;0.30;;;1.10;99.90;;;;;;5121189;28;20175;-80
2023/11/26 03:04:28;;;;;;;0.30;0.20;;;1.10;99.90;;;;;;5105586;28;20410;-80
2023/11/26 03:06:54;;;;;;;0.30;0.30;;;1.10;99.90;;;;;;5120469;28;20595;-80
2023/11/26 03:15:00;;;;;;;0.30;0.30;;;1.00;99.90;;;;;;5105680;28;20703;-75
2023/11/26 03:17:25;;;;;;;0.30;0.30;;;0.90;99.90;;;;;;5120987;28;20168;-80
2023/11/26 03:19:51;;;;;;;0.30;0.30;;;1.00;99.90;;;;;;5104252;28;20231;-75
2023/11/26 03:22:17;;;;;;;0.30;0.30;;;1.00;99.90;;;;;;5105349;28;20176;-78
2023/11/26 03:24:43;;;;;;;0.30;0.30;;;1.00;99.90;;;;;;5120960;28;20838;-75
2023/11/26 03:27:12;;;;;;;0.30;0.30;;;1.00;99.90;;;;;;5106149;28;20176;-76
2023/11/26 03:29:38;;;;;;;0.30;0.20;;;1.00;99.90;;;;;;5124549;27;20199;-81
2023/11/26 03:32:04;;;;;;;0.30;0.30;;;1.00;99.90;;;;;;5124661;27;20195;-81
2023/11/26 03:34:30;;;;;;;0.30;0.30;;;1.00;99.90;;;;;;5108905;28;20200;-75
2023/11/26 03:36:56;;;;;;;0.30;0.27;;;1.00;99.90;;;;;;5124564;27;20210;-75
2023/11/26 03:39:22;;;;;;;0.30;0.20;;;0.90;99.90;;;;;;5108490;28;20187;-76
2023/11/26 03:41:48;;;;;;;0.30;0.30;;;0.90;99.90;;;;;;5108791;28;20532;-75
2023/11/26 03:44:14;;;;;;;0.30;0.30;;;0.90;99.90;;;;;;5124010;27;20214;-75
2023/11/26 03:46:40;;;;;;;0.30;0.20;;;0.90;99.90;;;;;;5124588;27;20383;-79
2023/11/26 03:49:06;;;;;;;0.30;0.30;;;0.90;99.90;;;;;;5108404;28;20406;-81
2023/11/26 03:51:32;;;;;;;0.30;0.30;;;0.90;99.90;;;;;;5108618;28;20194;-75
2023/11/26 03:53:58;;;;;;;0.30;0.30;;;0.90;99.90;;;;;;5123761;27;20196;-75
2023/11/26 03:56:24;;;;;;;0.30;0.30;;;0.90;99.90;;;;;;5124557;27;20799;-81
2023/11/26 03:58:50;;;;;;;0.30;0.30;;;0.90;99.90;;;;;;5123610;27;20464;-74
2023/11/26 04:01:15;;;;;;;0.30;0.30;;;0.90;99.90;;;;;;5124359;27;20183;-80
2023/11/26 04:03:41;;;;;;;0.30;0.30;;;0.90;99.90;;;;;;5108164;28;20672;-80
2023/11/26 04:06:07;;;;;;;0.30;0.30;;;0.90;99.90;;;;;;5124139;27;20660;-79
2023/11/26 04:08:33;;;;;;;0.30;0.30;;;0.90;99.90;;;;;;5123206;27;20210;-75
2023/11/26 04:10:58;;;;;;;0.30;0.30;;;0.90;99.90;;;;;;5108181;28;20416;-80
2023/11/26 04:13:27;;;;;;;0.30;0.30;;;0.90;99.90;;;;;;5123595;27;20244;-80
2023/11/26 04:15:58;;;;;;;0.30;0.30;;;0.90;99.90;;;;;;5108341;28;20280;-81
2023/11/26 04:18:25;;;;;;;0.30;0.30;;;0.90;99.90;;;;;;5123712;27;20235;-75
2023/11/26 04:20:51;;;;;;;0.30;0.30;;;0.80;99.90;;;;;;5123153;27;20187;-81
2023/11/26 04:23:18;;;;;;;0.30;0.30;;;0.80;99.90;;;;;;5123162;27;20200;-80
2023/11/26 04:25:44;;;;;;;0.30;0.30;;;0.80;99.90;;;;;;5123918;27;20179;-75
2023/11/26 04:28:11;;;;;;;0.30;0.30;;;0.80;99.90;;;;;;5122896;27;20200;-80
2023/11/26 04:30:36;;;;;;;0.30;0.30;;;0.80;99.90;;;;;;5108098;28;20636;-81
2023/11/26 04:33:03;;;;;;;0.30;0.30;;;0.70;99.90;;;;;;5107188;28;20257;-81
2023/11/26 04:35:29;;;;;;;0.30;0.30;;;0.70;99.90;;;;;;5123760;27;20551;-75
2023/11/26 04:37:55;;;;;;;0.30;0.30;;;0.80;99.90;;;;;;5107243;28;20226;-81
2023/11/26 04:40:21;;;;;;;0.30;0.30;;;0.80;99.90;;;;;;5107613;28;20171;-74
2023/11/26 04:42:47;;;;;;;0.30;0.30;;;0.70;99.90;;;;;;5106975;28;20199;-81
2023/11/26 04:45:13;;;;;;;0.30;0.30;;;0.70;99.90;;;;;;5107311;28;20168;-81
2023/11/26 04:47:39;;;;;;;0.30;0.30;;;0.70;99.90;;;;;;5107197;28;20199;-74
2023/11/26 04:50:06;;;;;;;0.30;0.20;;;0.80;99.90;;;;;;5107696;28;20180;-75
2023/11/26 04:52:32;;;;;;;0.30;0.30;;;0.70;99.90;;;;;;5122713;27;20686;-74
2023/11/26 04:54:58;;;;;;;0.30;0.30;;;0.70;99.90;;;;;;5107154;28;20270;-75
2023/11/26 04:57:23;;;;;;;0.30;0.30;;;0.80;99.90;;;;;;5106967;27;20588;-80
2023/11/26 04:59:49;;;;;;;0.30;0.30;;;0.70;99.90;;;;;;5122848;27;20534;-81
2023/11/26 05:02:18;;;;;;;0.30;0.20;;;0.70;99.90;;;;;;5122820;27;20655;-78
2023/11/26 05:04:44;;;;;;;0.30;0.30;;;0.70;99.90;;;;;;5122722;27;20284;-74
2023/11/26 05:07:10;;;;;;;0.30;0.30;;;0.70;99.90;;;;;;5106870;28;20739;-80
2023/11/26 05:09:35;;;;;;;0.30;0.30;;;0.70;99.90;;;;;;5122922;27;20299;-75
2023/11/26 05:12:02;;;;;;;0.30;0.30;;;0.70;99.90;;;;;;5106632;28;20253;-74
2023/11/26 05:14:27;;;;;;;0.30;0.30;;;0.70;99.90;;;;;;5122649;27;20200;-81
2023/11/26 05:16:53;;;;;;;0.30;0.30;;;0.70;99.90;;;;;;5122572;27;20303;-75
2023/11/26 05:19:19;;;;;;;0.30;0.20;;;0.70;99.90;;;;;;5122453;27;20243;-75
2023/11/26 05:21:45;;;;;;;0.30;0.30;;;0.80;99.90;;;;;;5106152;28;20171;-80
2023/11/26 05:24:11;;;;;;;0.30;0.30;;;0.80;99.90;;;;;;5106266;28;20283;-81
2023/11/26 05:26:36;;;;;;;0.30;0.30;;;0.80;99.90;;;;;;5122671;27;20608;-80
2023/11/26 05:29:03;;;;;;;0.30;0.20;;;0.80;99.90;;;;;;5106027;28;20191;-79
2023/11/26 05:31:29;;;;;;;0.30;0.30;;;0.80;99.90;;;;;;5122402;27;20176;-75
2023/11/26 05:33:55;;;;;;;0.30;0.30;;;0.90;99.90;;;;;;5105932;28;20196;-81
2023/11/26 05:36:20;;;;;;;0.30;0.20;;;0.90;99.90;;;;;;5106393;28;20260;-79
2023/11/26 05:38:47;;;;;;;0.30;0.30;;;0.90;99.90;;;;;;5105937;28;20434;-74
2023/11/26 05:41:13;;;;;;;0.30;0.30;;;0.90;99.90;;;;;;5122133;27;20991;-75
2023/11/26 05:43:38;;;;;;;0.30;0.30;;;0.90;99.90;;;;;;5105681;28;20286;-74
2023/11/26 05:46:07;;;;;;;0.30;0.20;;;1.00;99.90;;;;;;5106474;28;20295;-75
2023/11/26 05:48:34;;;;;;;0.30;0.30;;;1.00;99.90;;;;;;5106609;28;20540;-81
2023/11/26 05:51:00;;;;;;;0.30;0.20;;;1.00;99.90;;;;;;5105705;28;20563;-75
2023/11/26 05:53:26;;;;;;;0.30;0.30;;;1.00;99.90;;;;;;5105656;28;20207;-74
2023/11/26 05:55:51;;;;;;;0.30;0.30;;;1.00;99.90;;;;;;5122201;27;20870;-75
2023/11/26 05:58:17;;;;;;;0.30;0.20;;;1.00;99.90;;;;;;5105583;28;20347;-74
2023/11/26 06:00:43;;;;;;;0.30;0.20;;;1.00;99.90;;;;;;5122020;27;20190;-80
2023/11/26 06:03:09;;;;;;;0.30;0.30;;;1.00;99.90;;;;;;5105835;28;20668;-74
2023/11/26 06:05:35;;;;;;;0.30;0.30;;;1.00;99.90;;;;;;5106559;28;20431;-81
2023/11/26 06:08:05;;;;;;;0.30;0.30;;;1.00;99.90;;;;;;5121377;27;20981;-80
2023/11/26 06:10:34;;;;;;;0.30;0.20;;;1.00;99.90;;;;;;5105867;28;20171;-81
2023/11/26 06:12:59;;;;;;;0.30;0.30;;;1.00;99.90;;;;;;5121341;27;20241;-81
2023/11/26 06:15:26;;;;;;;0.30;0.20;;;1.00;99.90;;;;;;5106327;28;20741;-81
2023/11/26 06:17:52;;;;;;;0.30;0.30;;;1.00;99.90;;;;;;5120901;27;20236;-81
2023/11/26 06:20:18;;;;;;;0.30;0.30;;;1.10;99.90;;;;;;5105508;28;20187;-77
2023/11/26 06:22:44;;;;;;;0.30;0.20;;;1.10;99.90;;;;;;5105729;28;20576;-81
2023/11/26 06:25:10;;;;;;;0.30;0.30;;;1.10;99.90;;;;;;5121706;28;20445;-75
2023/11/26 06:27:37;;;;;;;0.30;0.30;;;1.10;99.90;;;;;;5121209;28;20205;-80
2023/11/26 06:30:06;;;;;;;0.30;0.30;;;1.10;99.90;;;;;;5121475;28;20653;-74
2023/11/26 06:32:32;;;;;;;0.30;0.30;;;1.10;99.90;;;;;;5121508;28;20191;-75
2023/11/26 06:34:58;;;;;;;0.30;0.20;;;1.20;99.90;;;;;;5105280;28;20215;-74
2023/11/26 06:37:27;;;;;;;0.30;0.30;;;1.20;99.90;;;;;;5121575;28;20423;-74
2023/11/26 06:39:55;;;;;;;0.30;0.30;;;1.20;99.90;;;;;;5105837;28;20211;-80
2023/11/26 06:42:21;;;;;;;0.30;0.30;;;1.30;99.90;;;;;;5105618;28;20259;-81
2023/11/26 06:44:47;;;;;;;0.30;0.20;;;1.40;99.90;;;;;;5105923;28;20274;-81
2023/11/26 06:47:12;;;;;;;0.30;0.30;;;1.50;99.90;;;;;;5105268;28;20195;-80
2023/11/26 06:49:38;;;;;;;0.30;0.30;;;1.60;99.90;;;;;;5121625;28;20192;-80
2023/11/26 06:52:04;;;;;;;0.30;0.30;;;1.70;99.90;;;;;;5120987;28;20184;-75
2023/11/26 06:54:30;;;;;;;0.30;0.30;;;1.80;99.90;;;;;;5121375;28;20264;-75
2023/11/26 06:56:55;;;;;;;0.30;0.30;;;2.00;99.90;;;;;;5105090;28;20219;-77
2023/11/26 06:59:22;;;;;;;0.30;0.30;;;2.10;99.90;;;;;;5120780;28;20665;-75
2023/11/26 07:01:47;;;;;;;0.30;0.20;;;2.20;99.90;;;;;;5106117;28;20180;-75
2023/11/26 07:04:13;;;;;;;0.30;0.30;;;2.30;99.90;;;;;;5109369;28;20578;-81
2023/11/26 07:06:40;;;;;;;0.30;0.30;;;2.40;99.90;;;;;;5124918;27;20566;-75
2023/11/26 07:09:09;;;;;;;0.30;0.30;;;2.40;99.90;;;;;;5124484;27;20505;-75
2023/11/26 07:11:35;;;;;;;0.30;0.30;;;2.40;99.90;;;;;;5125147;27;20341;-75
2023/11/26 07:14:02;;;;;;;0.30;0.30;;;2.50;99.90;;;;;;5109051;28;20204;-80
2023/11/26 07:16:28;;;;;;;0.30;0.30;;;2.50;99.90;;;;;;5124894;27;20218;-80
2023/11/26 07:18:53;;;;;;;0.30;0.30;;;2.60;99.90;;;;;;5124619;27;20231;-80
2023/11/26 07:21:19;;;;;;;0.30;0.20;;;2.70;99.90;;;;;;5108228;28;20416;-79
2023/11/26 07:23:46;;;;;;;0.30;0.20;;;2.70;99.90;;;;;;5108591;28;20409;-80
2023/11/26 07:26:21;;;;;;;0.30;0.30;;;2.80;99.90;;;;;;5108873;28;20396;-75
2023/11/26 07:28:50;;;;;;;0.30;0.20;;;3.00;99.90;;;;;;5124567;27;20190;-81
2023/11/26 07:31:20;;;;;;;0.30;0.30;;;3.20;99.90;;;;;;5109116;28;20164;-80
2023/11/26 07:33:46;;;;;;;0.30;0.30;;;3.30;99.90;;;;;;5124523;27;20669;-80
2023/11/26 07:36:14;;;;;;;0.30;0.30;;;3.60;99.90;;;;;;5108755;28;20290;-77
2023/11/26 07:38:41;;;;;;;0.30;0.30;;;4.00;99.90;;;;;;5108552;28;20195;-75
2023/11/26 07:41:08;;;;;;;0.30;0.30;;;4.50;99.90;;;;;;5124487;27;20668;-81
2023/11/26 07:43:37;;;;;;;0.30;0.30;;;4.90;99.90;;;;;;5123810;27;20719;-80
2023/11/26 07:46:04;;;;;;;0.30;0.30;;;5.30;99.90;;;;;;5124302;27;20179;-75
2023/11/26 07:48:29;;;;;;;0.30;0.30;;;5.80;99.90;;;;;;5124017;27;20354;-82
2023/11/26 07:50:55;;;;;;;0.30;0.30;;;6.40;99.90;;;;;;5124525;27;20526;-80
2023/11/26 07:53:24;;;;;;;0.40;0.30;;;7.00;99.90;;;;;;5123919;27;20220;-81
2023/11/26 07:55:56;;;;;;;0.30;0.30;;;7.40;99.90;;;;;;5124277;27;20207;-75
2023/11/26 07:58:25;;;;;;;0.50;0.50;;;7.70;99.90;;;;;;5108066;28;20570;-80
2023/11/26 08:00:51;;;;;;;0.30;0.20;;;7.70;99.90;;;;;;5124280;27;20411;-80
2023/11/26 08:03:17;;;;;;;1.98;1.80;;;7.50;99.90;;;;;;5123767;27;20196;-81
2023/11/26 08:05:43;;;;;;;0.30;0.30;;;7.10;99.90;;;;;;5108721;28;20183;-80
2023/11/26 08:08:10;;;;;;;0.30;0.30;;;6.70;99.90;;;;;;5123531;27;20196;-75
2023/11/26 08:10:37;;;;;;;0.30;0.30;;;6.40;99.90;;;;;;5124183;27;20212;-80
2023/11/26 08:13:02;;;;;;;0.30;0.30;;;6.10;99.90;;;;;;5122987;27;20279;-75
2023/11/26 08:15:28;;;;;;;0.30;0.30;;;5.90;99.90;;;;;;5108501;28;20288;-81
2023/11/26 08:17:55;;;;;;;0.30;0.20;;;5.80;99.90;;;;;;5107605;28;20215;-80
2023/11/26 08:20:24;;;;;;;0.30;0.20;;;5.60;99.90;;;;;;5124062;27;20776;-75
2023/11/26 08:22:51;;;;;;;0.30;0.20;;;5.50;99.90;;;;;;5106949;28;20183;-81
2023/11/26 08:25:18;;;;;;;0.30;0.20;;;5.40;99.90;;;;;;5104813;28;20186;-75
2023/11/26 08:27:46;;;;;;;0.30;0.28;;;5.30;99.90;;;;;;5105724;28;20180;-75
2023/11/26 08:33:02;;;;;;;0.30;0.20;;;5.10;99.90;;;;;;5106519;28;20389;-81
2023/11/26 08:35:29;;;;;;;0.30;0.20;;;5.00;99.90;;;;;;5118908;27;20585;-76
2023/11/26 08:37:55;;;;;;;0.30;0.20;;;5.00;99.90;;;;;;5107507;27;20176;-81
2023/11/26 08:40:22;;;;;;;0.30;0.20;;;5.00;99.90;;;;;;5107026;28;20176;-81
2023/11/26 08:42:47;;;;;;;0.30;0.20;;;5.00;99.90;;;;;;5105049;28;20616;-81
2023/11/26 08:45:14;;;;;;;0.30;0.20;;;4.90;99.90;;;;;;5107246;28;20271;-80
2023/11/26 08:47:44;;;;;;;0.30;0.20;;;5.00;99.90;;;;;;5106010;28;20660;-75
2023/11/26 08:50:10;;;;;;;0.30;0.20;;;5.00;99.90;;;;;;5105857;28;20187;-75
2023/11/26 08:52:37;;;;;;;0.30;0.30;;;5.10;99.90;;;;;;5107007;28;20242;-75
2023/11/26 08:55:04;;;;;;;0.30;0.30;;;5.10;99.90;;;;;;5105574;28;20703;-79
2023/11/26 08:57:31;;;;;;;0.30;0.20;;;5.10;99.90;;;;;;5107058;28;20168;-81
2023/11/26 08:59:56;;;;;;;0.30;0.20;;;5.10;99.90;;;;;;5105769;28;20204;-81
2023/11/26 09:02:23;;;;;;;0.30;0.20;;;5.10;99.90;;;;;;5106841;28;20164;-75
2023/11/26 09:04:49;;;;;;;0.30;0.30;;;5.20;99.90;;;;;;5107237;28;20576;-75
2023/11/26 09:07:15;;;;;;;0.30;0.20;;;5.20;99.90;;;;;;5105245;28;20190;-81
2023/11/26 09:09:44;;;;;;;0.30;0.30;;;5.20;99.90;;;;;;5106766;28;20687;-75
2023/11/26 09:12:10;;;;;;;0.30;0.20;;;5.20;99.90;;;;;;5106569;28;20264;-75
2023/11/26 09:14:36;;;;;;;0.30;0.20;;;5.20;99.90;;;;;;5106828;28;20196;-75
2023/11/26 09:17:03;;;;;;;0.30;0.20;;;5.30;99.90;;;;;;5106786;28;20656;-74
2023/11/26 09:19:29;;;;;;;0.30;0.25;;;5.30;99.90;;;;;;5105126;28;20326;-81
2023/11/26 09:21:54;;;;;;;0.30;0.20;;;5.30;99.90;;;;;;5106891;28;20306;-75
2023/11/26 09:24:20;;;;;;;0.30;0.20;;;5.30;99.90;;;;;;5105869;28;20234;-75
2023/11/26 09:26:46;;;;;;;0.30;0.20;;;5.30;99.90;;;;;;5105836;28;20647;-75
2023/11/26 09:29:12;;;;;;;0.30;0.30;;;5.40;99.90;;;;;;5105786;28;20195;-81
2023/11/26 09:31:41;;;;;;;0.30;0.20;;;5.40;99.90;;;;;;5105751;28;20177;-75
2023/11/26 09:34:07;;;;;;;0.30;0.20;;;5.50;99.90;;;;;;5105811;28;20401;-75
2023/11/26 09:36:33;;;;;;;0.30;0.20;;;5.50;99.90;;;;;;5122164;27;20394;-75
2023/11/26 09:38:59;;;;;;;0.30;0.20;;;5.50;99.90;;;;;;5106347;28;20443;-81
2023/11/26 09:41:25;;;;;;;0.30;0.30;;;5.60;99.90;;;;;;5105473;28;20271;-81
2023/11/26 09:43:51;;;;;;;0.30;0.20;;;5.60;99.90;;;;;;5106084;28;20270;-81
2023/11/26 09:46:22;;;;;;;0.30;0.20;;;5.70;99.90;;;;;;5104376;28;20180;-76
2023/11/26 09:48:47;;;;;;;0.30;0.20;;;5.70;99.90;;;;;;5099092;28;20286;-81
2023/11/26 09:51:13;;;;;;;0.30;0.30;;;5.80;99.90;;;;;;5098050;28;20287;-77
2023/11/26 09:53:40;;;;;;;0.30;0.20;;;5.80;99.90;;;;;;5096024;28;20196;-81
2023/11/26 09:56:11;;;;;;;0.30;0.20;;;5.90;99.90;;;;;;5102757;27;20269;-82
2023/11/26 09:58:38;;;;;;;0.30;0.30;;;5.90;99.90;;;;;;5098921;28;20192;-75
2023/11/26 10:01:05;;;;;;;0.30;0.20;;;6.00;99.90;;;;;;5120171;27;20180;-82
2023/11/26 10:03:31;;;;;;;0.30;0.20;;;6.10;99.90;;;;;;5104871;28;20677;-81
2023/11/26 10:06:17;;;;;;;0.30;0.20;;;6.20;99.90;;;;;;5104903;28;20379;-81
2023/11/26 10:08:43;;;;;;;0.30;0.20;;;6.30;99.90;;;;;;5103342;28;20207;-81
2023/11/26 10:11:08;;;;;;;0.30;0.20;;;6.30;99.90;;;;;;5104457;28;20186;-81
2023/11/26 10:13:41;;;;;;;0.30;0.30;;;6.40;99.90;;;;;;5103887;28;20455;-82
2023/11/26 10:16:08;;;;;;;0.30;0.20;;;6.40;99.90;;;;;;5116242;27;20569;-75
2023/11/26 10:18:41;;;;;;;0.30;0.20;;;6.50;99.90;;;;;;5082105;28;20725;-80
2023/11/26 10:21:08;;;;;;;0.30;0.30;;;6.60;99.90;;;;;;5084084;28;20182;-82
2023/11/26 10:23:38;;;;;;;0.30;0.20;;;6.60;99.90;;;;;;5083859;28;20250;-81
2023/11/26 10:26:18;;;;;;;0.30;0.20;;;6.70;99.90;;;;;;5085571;28;20199;-76
2023/11/26 10:28:58;;;;;;;0.30;0.20;;;6.60;99.90;;;;;;5085568;28;20212;-75
2023/11/26 10:31:24;;;;;;;0.30;0.20;;;6.60;99.90;;;;;;5085354;28;20250;-81
2023/11/26 10:33:49;;;;;;;0.30;0.30;;;6.60;99.90;;;;;;5083974;28;20636;-75
2023/11/26 10:36:30;;;;;;;0.30;0.20;;;6.60;99.90;;;;;;5086642;28;20251;-75
2023/11/26 10:38:56;;;;;;;0.30;0.20;;;6.60;99.90;;;;;;5089355;28;20348;-81
2023/11/26 10:41:23;;;;;;;0.30;0.20;;;6.60;99.90;;;;;;5089463;28;20181;-80
2023/11/26 10:43:51;;;;;;;0.30;0.20;;;6.60;99.90;;;;;;5087865;28;20737;-75
2023/11/26 10:46:18;;;;;;;0.30;0.20;;;6.60;99.90;;;;;;5089155;28;20181;-81
2023/11/26 10:48:54;;;;;;;0.30;0.20;;;6.60;99.90;;;;;;5089151;28;20192;-75
2023/11/26 10:51:24;;;;;;;0.30;0.20;;;6.60;99.90;;;;;;5089583;28;20172;-75
2023/11/26 10:54:00;;;;;;;0.30;0.20;;;6.70;99.90;;;;;;5087735;28;20661;-81
2023/11/26 10:56:47;;;;;;;0.30;0.20;;;6.60;99.90;;;;;;5087838;28;20215;-75
2023/11/26 10:59:19;;;;;;;0.30;0.20;;;6.60;99.90;;;;;;5087206;28;20193;-76
2023/11/26 11:01:46;;;;;;;0.30;0.20;;;6.70;99.90;;;;;;5089155;28;20621;-81
2023/11/26 11:04:15;;;;;;;0.30;0.20;;;6.70;99.90;;;;;;5093853;28;20195;-75
2023/11/26 11:06:43;;;;;;;0.30;0.20;;;6.70;99.90;;;;;;5108831;28;20172;-81
2023/11/26 11:09:13;;;;;;;0.30;0.20;;;6.70;99.90;;;;;;5114059;27;20240;-75
2023/11/26 11:11:51;;;;;;;0.30;0.20;;;6.70;99.90;;;;;;5108223;28;20738;-75
2023/11/26 11:14:18;;;;;;;0.30;0.20;;;6.70;99.90;;;;;;5115381;27;20723;-81
2023/11/26 11:16:43;;;;;;;0.30;0.20;;;6.80;99.90;;;;;;5108627;28;20230;-75
2023/11/26 11:19:09;;;;;;;0.30;0.20;;;6.90;99.90;;;;;;5107382;28;20227;-81
2023/11/26 11:21:47;;;;;;;0.30;0.20;;;7.00;99.90;;;;;;5107590;28;20168;-80
2023/11/26 11:24:22;;;;;;;0.30;0.20;;;7.20;99.90;;;;;;5123036;27;20699;-81
2023/11/26 11:26:47;;;;;;;0.30;0.20;;;7.30;99.90;;;;;;5123690;27;20175;-75
2023/11/26 11:29:31;;;;;;;0.30;0.20;;;7.30;99.90;;;;;;5122778;27;20212;-75
2023/11/26 11:32:01;;;;;;;0.30;0.20;;;7.40;99.90;;;;;;5107626;27;20164;-75
2023/11/26 11:34:30;;;;;;;0.30;0.20;;;7.40;99.90;;;;;;5106390;28;20199;-81
2023/11/26 11:36:59;;;;;;;0.30;0.20;;;7.40;99.90;;;;;;5107806;28;20256;-75
2023/11/26 11:39:46;;;;;;;0.30;0.30;;;7.40;99.90;;;;;;5107316;28;20580;-81
2023/11/26 11:42:21;;;;;;;0.30;0.20;;;7.40;99.90;;;;;;5108739;28;20233;-75
2023/11/26 11:44:46;;;;;;;0.30;0.30;;;7.30;99.90;;;;;;5108956;28;20289;-75
2023/11/26 11:47:42;;;;;;;0.30;0.20;;;7.30;99.90;;;;;;5123800;27;20583;-82
2023/11/26 11:50:08;;;;;;;0.30;0.30;;;7.20;99.90;;;;;;5109025;28;20172;-78
2023/11/26 11:52:35;;;;;;;0.30;0.20;;;7.10;99.90;;;;;;5124171;27;20218;-80
2023/11/26 11:55:16;;;;;;;0.30;0.20;;;7.10;99.90;;;;;;5124468;27;20569;-82
2023/11/26 11:57:47;;;;;;;0.30;0.20;;;7.00;99.90;;;;;;5108062;28;20293;-75
2023/11/26 12:00:16;;;;;;;0.30;0.20;;;6.90;99.90;;;;;;5108807;28;20425;-81
2023/11/26 12:02:42;;;;;;;0.30;0.20;;;6.80;99.90;;;;;;5108346;28;20186;-76
2023/11/26 12:05:22;;;;;;;0.30;0.20;;;6.70;99.90;;;;;;5108711;28;20247;-78
2023/11/26 12:07:47;;;;;;;0.30;0.20;;;6.70;99.90;;;;;;5123736;27;20693;-75
2023/11/26 12:10:23;;;;;;;0.30;0.20;;;6.70;99.90;;;;;;5108808;28;20260;-80
2023/11/26 12:13:07;;;;;;;0.30;0.30;;;6.60;99.90;;;;;;5107485;28;20182;-81
2023/11/26 12:15:34;;;;;;;0.30;0.30;;;6.60;99.90;;;;;;5124165;27;20204;-75
2023/11/26 12:18:00;;;;;;;0.30;0.20;;;6.60;99.90;;;;;;5107655;28;20227;-81
2023/11/26 12:20:27;;;;;;;0.30;0.20;;;6.60;99.90;;;;;;5123996;27;20681;-75
2023/11/26 12:22:53;;;;;;;0.30;0.30;;;6.60;99.90;;;;;;5123435;27;20427;-75
2023/11/26 12:25:21;;;;;;;0.30;0.30;;;6.50;99.90;;;;;;5107999;28;20183;-81
2023/11/26 12:28:08;;;;;;;0.30;0.20;;;6.50;99.90;;;;;;5107715;28;20362;-81
2023/11/26 12:30:36;;;;;;;0.30;0.20;;;6.50;99.90;;;;;;5108022;28;20175;-81
2023/11/26 12:33:03;;;;;;;0.30;0.20;;;6.50;99.90;;;;;;5122682;27;20227;-75
2023/11/26 12:35:33;;;;;;;0.30;0.20;;;6.50;99.90;;;;;;5123124;27;20298;-76
2023/11/26 12:38:01;;;;;;;0.30;0.20;;;6.50;99.90;;;;;;5123287;27;20433;-75
2023/11/26 12:40:30;;;;;;;0.30;0.20;;;6.40;99.90;;;;;;5108036;28;20564;-75
2023/11/26 12:42:57;;;;;;;0.30;0.20;;;6.40;99.90;;;;;;5107406;28;20215;-81
2023/11/26 12:45:22;;;;;;;0.30;0.20;;;6.40;99.90;;;;;;5089697;28;20546;-76
2023/11/26 12:47:53;;;;;;;0.30;0.30;;;6.40;99.90;;;;;;5122736;27;20167;-76
2023/11/26 12:50:20;;;;;;;0.30;0.20;;;6.40;99.90;;;;;;5107535;28;20178;-75
2023/11/26 12:52:47;;;;;;;0.30;0.20;;;6.40;99.90;;;;;;5123093;27;20246;-75
2023/11/26 12:55:14;;;;;;;0.30;0.20;;;6.40;99.90;;;;;;5107516;28;20203;-80
2023/11/26 12:57:40;;;;;;;0.30;0.20;;;6.40;99.90;;;;;;5122822;27;20180;-81
2023/11/26 13:00:11;;;;;;;0.30;0.20;;;6.40;99.90;;;;;;5123058;27;20180;-75
2023/11/26 13:03:05;;;;;;;0.30;0.20;;;6.30;99.90;;;;;;5122786;27;20520;-75
2023/11/26 13:05:31;;;;;;;0.30;0.20;;;6.30;99.90;;;;;;5107357;28;20176;-75
2023/11/26 13:07:58;;;;;;;0.30;0.20;;;6.30;99.90;;;;;;5122493;27;20206;-76